X  Lukk Metar værinformasjon om luftfart     ENRY Moss Airport, Rygge
Temperatur
5°C Temperatur
2°C Duggpunkt
81% Luftfuktighet



Vind
7 M/S
16 MPT
26 KM/T
14 KNP



210°
SSV
Nåværende forhold

Klart Klart
Trykk 1019.92 (hPa) - 30.12 (inHg)
Sikt 6.2 (mil) - 10 (km)
Flyplass
Flyplass-kode ENRY

Plassering: Moss Airport, Rygge
Avstand: 12 (km)

Metar:
ENRY 241020Z 21014KT CAVOK 05/02 Q1020 NOSIG

Tid: 24-01-2022 11:20 CET